sensor_id;sensor_type;location;lat;lon;timestamp;temperature;humidity
21627;DHT22;10975;47.872;12.972;2022-09-13T00:00:15;11.80;99.90
21627;DHT22;10975;47.872;12.972;2022-09-13T00:02:42;11.70;99.90
21627;DHT22;10975;47.872;12.972;2022-09-13T00:05:09;11.70;99.90
21627;DHT22;10975;47.872;12.972;2022-09-13T00:07:35;11.70;99.90
21627;DHT22;10975;47.872;12.972;2022-09-13T00:10:02;11.60;99.90
21627;DHT22;10975;47.872;12.972;2022-09-13T00:12:29;11.60;99.90
21627;DHT22;10975;47.872;12.972;2022-09-13T00:14:56;11.50;99.90
21627;DHT22;10975;47.872;12.972;2022-09-13T00:17:23;11.50;99.90
21627;DHT22;10975;47.872;12.972;2022-09-13T00:19:49;11.50;99.90
21627;DHT22;10975;47.872;12.972;2022-09-13T00:22:16;11.50;99.90
21627;DHT22;10975;47.872;12.972;2022-09-13T00:24:43;11.50;99.90
21627;DHT22;10975;47.872;12.972;2022-09-13T00:27:09;11.60;99.90
21627;DHT22;10975;47.872;12.972;2022-09-13T00:29:39;11.50;99.90
21627;DHT22;10975;47.872;12.972;2022-09-13T00:32:06;11.60;99.90
21627;DHT22;10975;47.872;12.972;2022-09-13T00:34:33;11.60;99.90
21627;DHT22;10975;47.872;12.972;2022-09-13T00:36:59;11.50;99.90
21627;DHT22;10975;47.872;12.972;2022-09-13T00:39:26;11.50;99.90
21627;DHT22;10975;47.872;12.972;2022-09-13T00:41:53;11.50;99.90
21627;DHT22;10975;47.872;12.972;2022-09-13T00:47:05;11.40;99.90
21627;DHT22;10975;47.872;12.972;2022-09-13T00:49:35;11.40;99.90
21627;DHT22;10975;47.872;12.972;2022-09-13T00:52:04;11.40;99.90
21627;DHT22;10975;47.872;12.972;2022-09-13T00:54:35;11.30;99.90
21627;DHT22;10975;47.872;12.972;2022-09-13T00:57:05;11.40;99.90
21627;DHT22;10975;47.872;12.972;2022-09-13T00:59:36;11.30;99.90
21627;DHT22;10975;47.872;12.972;2022-09-13T01:02:04;11.30;99.90
21627;DHT22;10975;47.872;12.972;2022-09-13T01:04:31;11.30;99.90
21627;DHT22;10975;47.872;12.972;2022-09-13T01:07:01;11.20;99.90
21627;DHT22;10975;47.872;12.972;2022-09-13T01:09:30;11.20;99.90
21627;DHT22;10975;47.872;12.972;2022-09-13T01:12:02;11.20;99.90
21627;DHT22;10975;47.872;12.972;2022-09-13T01:14:33;11.20;99.90
21627;DHT22;10975;47.872;12.972;2022-09-13T01:17:00;11.20;99.90
21627;DHT22;10975;47.872;12.972;2022-09-13T01:19:27;11.10;99.90
21627;DHT22;10975;47.872;12.972;2022-09-13T01:42:43;11.00;99.90
21627;DHT22;10975;47.872;12.972;2022-09-13T01:51:05;10.90;99.90
21627;DHT22;10975;47.872;12.972;2022-09-13T01:56:09;10.80;99.90
21627;DHT22;10975;47.872;12.972;2022-09-13T01:58:45;10.80;99.90
21627;DHT22;10975;47.872;12.972;2022-09-13T02:01:18;10.80;99.90
21627;DHT22;10975;47.872;12.972;2022-09-13T02:03:51;10.80;99.90
21627;DHT22;10975;47.872;12.972;2022-09-13T02:06:23;10.80;99.90
21627;DHT22;10975;47.872;12.972;2022-09-13T02:09:02;10.80;99.90
21627;DHT22;10975;47.872;12.972;2022-09-13T02:11:29;10.80;99.90
21627;DHT22;10975;47.872;12.972;2022-09-13T02:13:59;10.80;99.90
21627;DHT22;10975;47.872;12.972;2022-09-13T02:16:29;10.80;99.90
21627;DHT22;10975;47.872;12.972;2022-09-13T02:18:58;10.80;99.90
21627;DHT22;10975;47.872;12.972;2022-09-13T02:21:29;10.80;99.90
21627;DHT22;10975;47.872;12.972;2022-09-13T02:24:01;10.70;99.90
21627;DHT22;10975;47.872;12.972;2022-09-13T02:26:29;10.70;99.90
21627;DHT22;10975;47.872;12.972;2022-09-13T02:28:57;10.70;99.90
21627;DHT22;10975;47.872;12.972;2022-09-13T02:31:44;10.70;99.90
21627;DHT22;10975;47.872;12.972;2022-09-13T02:34:15;10.70;99.90
21627;DHT22;10975;47.872;12.972;2022-09-13T02:36:44;10.70;99.90
21627;DHT22;10975;47.872;12.972;2022-09-13T02:39:12;10.60;99.90
21627;DHT22;10975;47.872;12.972;2022-09-13T02:44:16;10.60;99.90
21627;DHT22;10975;47.872;12.972;2022-09-13T02:52:10;10.50;99.90
21627;DHT22;10975;47.872;12.972;2022-09-13T02:54:40;10.50;99.90
21627;DHT22;10975;47.872;12.972;2022-09-13T02:57:13;10.50;99.90
21627;DHT22;10975;47.872;12.972;2022-09-13T02:59:44;10.50;99.90
21627;DHT22;10975;47.872;12.972;2022-09-13T03:02:18;10.40;99.90
21627;DHT22;10975;47.872;12.972;2022-09-13T03:04:46;10.50;99.90
21627;DHT22;10975;47.872;12.972;2022-09-13T03:07:13;10.40;99.90
21627;DHT22;10975;47.872;12.972;2022-09-13T03:09:41;10.40;99.90
21627;DHT22;10975;47.872;12.972;2022-09-13T03:12:22;10.40;99.90
21627;DHT22;10975;47.872;12.972;2022-09-13T03:14:58;10.40;99.90
21627;DHT22;10975;47.872;12.972;2022-09-13T03:28:38;10.40;99.90
21627;DHT22;10975;47.872;12.972;2022-09-13T03:31:07;10.40;99.90
21627;DHT22;10975;47.872;12.972;2022-09-13T03:33:57;10.40;99.90
21627;DHT22;10975;47.872;12.972;2022-09-13T03:36:36;10.40;99.90
21627;DHT22;10975;47.872;12.972;2022-09-13T03:41:41;10.40;99.90
21627;DHT22;10975;47.872;12.972;2022-09-13T03:44:11;10.40;99.90
21627;DHT22;10975;47.872;12.972;2022-09-13T03:46:43;10.30;99.90
21627;DHT22;10975;47.872;12.972;2022-09-13T03:49:11;10.40;99.90
21627;DHT22;10975;47.872;12.972;2022-09-13T03:51:39;10.30;99.90
21627;DHT22;10975;47.872;12.972;2022-09-13T03:54:08;10.30;99.90
21627;DHT22;10975;47.872;12.972;2022-09-13T03:56:35;10.30;99.90
21627;DHT22;10975;47.872;12.972;2022-09-13T03:59:02;10.20;99.90
21627;DHT22;10975;47.872;12.972;2022-09-13T04:01:29;10.20;99.90
21627;DHT22;10975;47.872;12.972;2022-09-13T04:03:56;10.20;99.90
21627;DHT22;10975;47.872;12.972;2022-09-13T04:06:23;10.10;99.90
21627;DHT22;10975;47.872;12.972;2022-09-13T04:08:50;10.00;99.90
21627;DHT22;10975;47.872;12.972;2022-09-13T04:11:17;10.10;99.90
21627;DHT22;10975;47.872;12.972;2022-09-13T04:13:43;10.00;99.90
21627;DHT22;10975;47.872;12.972;2022-09-13T04:16:10;10.10;99.90
21627;DHT22;10975;47.872;12.972;2022-09-13T04:18:37;10.10;99.90
21627;DHT22;10975;47.872;12.972;2022-09-13T04:21:04;10.10;99.90
21627;DHT22;10975;47.872;12.972;2022-09-13T04:23:30;10.10;99.90
21627;DHT22;10975;47.872;12.972;2022-09-13T04:26:03;10.00;99.90
21627;DHT22;10975;47.872;12.972;2022-09-13T04:28:30;10.00;99.90
21627;DHT22;10975;47.872;12.972;2022-09-13T04:30:57;10.00;99.90
21627;DHT22;10975;47.872;12.972;2022-09-13T04:33:23;10.00;99.90
21627;DHT22;10975;47.872;12.972;2022-09-13T04:35:56;10.00;99.90
21627;DHT22;10975;47.872;12.972;2022-09-13T04:38:23;10.00;99.90
21627;DHT22;10975;47.872;12.972;2022-09-13T04:40:53;10.00;99.90
21627;DHT22;10975;47.872;12.972;2022-09-13T04:43:20;10.00;99.90
21627;DHT22;10975;47.872;12.972;2022-09-13T04:45:47;10.00;99.90
21627;DHT22;10975;47.872;12.972;2022-09-13T04:48:14;10.00;99.90
21627;DHT22;10975;47.872;12.972;2022-09-13T04:50:41;10.00;99.90
21627;DHT22;10975;47.872;12.972;2022-09-13T04:53:07;9.90;99.90
21627;DHT22;10975;47.872;12.972;2022-09-13T04:55:34;10.00;99.90
21627;DHT22;10975;47.872;12.972;2022-09-13T04:58:02;9.90;99.90
21627;DHT22;10975;47.872;12.972;2022-09-13T05:00:30;9.90;99.90
21627;DHT22;10975;47.872;12.972;2022-09-13T05:02:57;9.90;99.90
21627;DHT22;10975;47.872;12.972;2022-09-13T05:05:23;9.90;99.90
21627;DHT22;10975;47.872;12.972;2022-09-13T05:07:51;9.90;99.90
21627;DHT22;10975;47.872;12.972;2022-09-13T05:10:18;10.00;99.90
21627;DHT22;10975;47.872;12.972;2022-09-13T05:12:45;10.00;99.90
21627;DHT22;10975;47.872;12.972;2022-09-13T05:15:11;10.00;99.90
21627;DHT22;10975;47.872;12.972;2022-09-13T05:17:38;10.00;99.90
21627;DHT22;10975;47.872;12.972;2022-09-13T05:20:05;10.00;99.90
21627;DHT22;10975;47.872;12.972;2022-09-13T05:22:32;10.00;99.90
21627;DHT22;10975;47.872;12.972;2022-09-13T05:24:59;10.10;99.90
21627;DHT22;10975;47.872;12.972;2022-09-13T05:27:25;10.10;99.90
21627;DHT22;10975;47.872;12.972;2022-09-13T05:29:52;10.10;99.90
21627;DHT22;10975;47.872;12.972;2022-09-13T05:32:19;10.20;99.90
21627;DHT22;10975;47.872;12.972;2022-09-13T05:34:45;10.20;99.90
21627;DHT22;10975;47.872;12.972;2022-09-13T05:37:13;10.20;99.90
21627;DHT22;10975;47.872;12.972;2022-09-13T05:39:39;10.30;99.90
21627;DHT22;10975;47.872;12.972;2022-09-13T05:42:26;10.30;99.90
21627;DHT22;10975;47.872;12.972;2022-09-13T05:44:53;10.40;99.90
21627;DHT22;10975;47.872;12.972;2022-09-13T05:47:19;10.40;99.90
21627;DHT22;10975;47.872;12.972;2022-09-13T05:49:46;10.50;99.90
21627;DHT22;10975;47.872;12.972;2022-09-13T05:52:33;10.50;99.90
21627;DHT22;10975;47.872;12.972;2022-09-13T05:54:59;10.60;99.90
21627;DHT22;10975;47.872;12.972;2022-09-13T05:57:26;10.60;99.90
21627;DHT22;10975;47.872;12.972;2022-09-13T05:59:53;10.70;99.90
21627;DHT22;10975;47.872;12.972;2022-09-13T06:02:19;10.80;99.90
21627;DHT22;10975;47.872;12.972;2022-09-13T06:04:47;10.80;99.90
21627;DHT22;10975;47.872;12.972;2022-09-13T06:07:13;10.90;99.90
21627;DHT22;10975;47.872;12.972;2022-09-13T06:09:40;11.00;99.90
21627;DHT22;10975;47.872;12.972;2022-09-13T06:12:06;11.00;99.90
21627;DHT22;10975;47.872;12.972;2022-09-13T06:14:33;11.10;99.90
21627;DHT22;10975;47.872;12.972;2022-09-13T06:17:00;11.10;99.90
21627;DHT22;10975;47.872;12.972;2022-09-13T06:19:26;11.20;99.90
21627;DHT22;10975;47.872;12.972;2022-09-13T06:21:53;11.20;99.90
21627;DHT22;10975;47.872;12.972;2022-09-13T06:24:20;11.30;99.90
21627;DHT22;10975;47.872;12.972;2022-09-13T06:26:47;11.30;99.90
21627;DHT22;10975;47.872;12.972;2022-09-13T06:29:13;11.40;99.90
21627;DHT22;10975;47.872;12.972;2022-09-13T06:31:40;11.50;99.90
21627;DHT22;10975;47.872;12.972;2022-09-13T06:34:11;11.50;99.90
21627;DHT22;10975;47.872;12.972;2022-09-13T06:36:41;11.50;99.90
21627;DHT22;10975;47.872;12.972;2022-09-13T06:39:08;11.60;99.90
21627;DHT22;10975;47.872;12.972;2022-09-13T06:41:35;11.70;99.90
21627;DHT22;10975;47.872;12.972;2022-09-13T06:44:02;11.80;99.90
21627;DHT22;10975;47.872;12.972;2022-09-13T06:46:30;11.80;99.90
21627;DHT22;10975;47.872;12.972;2022-09-13T06:48:58;11.90;99.90
21627;DHT22;10975;47.872;12.972;2022-09-13T06:51:24;12.00;99.90
21627;DHT22;10975;47.872;12.972;2022-09-13T06:53:51;12.10;99.90
21627;DHT22;10975;47.872;12.972;2022-09-13T06:56:19;12.20;99.90
21627;DHT22;10975;47.872;12.972;2022-09-13T06:58:47;12.20;99.90
21627;DHT22;10975;47.872;12.972;2022-09-13T07:01:16;12.30;99.90
21627;DHT22;10975;47.872;12.972;2022-09-13T07:03:44;12.40;99.90
21627;DHT22;10975;47.872;12.972;2022-09-13T07:08:38;12.60;99.90
21627;DHT22;10975;47.872;12.972;2022-09-13T07:11:05;12.70;99.90
21627;DHT22;10975;47.872;12.972;2022-09-13T07:13:32;12.80;99.90
21627;DHT22;10975;47.872;12.972;2022-09-13T07:16:17;13.00;99.90
21627;DHT22;10975;47.872;12.972;2022-09-13T07:18:44;13.10;99.90
21627;DHT22;10975;47.872;12.972;2022-09-13T07:21:16;13.20;99.90
21627;DHT22;10975;47.872;12.972;2022-09-13T07:23:43;13.30;99.90
21627;DHT22;10975;47.872;12.972;2022-09-13T07:26:10;13.50;99.90
21627;DHT22;10975;47.872;12.972;2022-09-13T07:28:37;13.50;99.90
21627;DHT22;10975;47.872;12.972;2022-09-13T07:33:31;13.70;99.90
21627;DHT22;10975;47.872;12.972;2022-09-13T07:35:58;13.80;99.90
21627;DHT22;10975;47.872;12.972;2022-09-13T07:38:26;13.90;99.90
21627;DHT22;10975;47.872;12.972;2022-09-13T07:40:54;13.90;99.90
21627;DHT22;10975;47.872;12.972;2022-09-13T07:43:21;14.00;99.90
21627;DHT22;10975;47.872;12.972;2022-09-13T07:45:47;14.10;99.90
21627;DHT22;10975;47.872;12.972;2022-09-13T07:48:23;14.20;99.90
21627;DHT22;10975;47.872;12.972;2022-09-13T07:50:59;14.20;99.90
21627;DHT22;10975;47.872;12.972;2022-09-13T07:53:26;14.30;99.90
21627;DHT22;10975;47.872;12.972;2022-09-13T07:55:53;14.40;99.90
21627;DHT22;10975;47.872;12.972;2022-09-13T07:58:24;14.50;99.90
21627;DHT22;10975;47.872;12.972;2022-09-13T08:00:51;14.60;99.90
21627;DHT22;10975;47.872;12.972;2022-09-13T08:03:18;14.60;99.90
21627;DHT22;10975;47.872;12.972;2022-09-13T08:05:44;14.80;99.90
21627;DHT22;10975;47.872;12.972;2022-09-13T08:08:11;14.90;99.90
21627;DHT22;10975;47.872;12.972;2022-09-13T08:10:38;15.00;99.90
21627;DHT22;10975;47.872;12.972;2022-09-13T08:13:04;15.00;99.90
21627;DHT22;10975;47.872;12.972;2022-09-13T08:15:31;15.10;99.90
21627;DHT22;10975;47.872;12.972;2022-09-13T08:17:59;15.20;99.90
21627;DHT22;10975;47.872;12.972;2022-09-13T08:20:25;15.30;99.90
21627;DHT22;10975;47.872;12.972;2022-09-13T08:22:52;15.30;99.90
21627;DHT22;10975;47.872;12.972;2022-09-13T08:25:20;15.40;99.90
21627;DHT22;10975;47.872;12.972;2022-09-13T08:27:46;15.50;99.90
21627;DHT22;10975;47.872;12.972;2022-09-13T08:30:13;15.60;99.90
21627;DHT22;10975;47.872;12.972;2022-09-13T08:32:40;15.70;99.90
21627;DHT22;10975;47.872;12.972;2022-09-13T08:35:07;15.70;99.90
21627;DHT22;10975;47.872;12.972;2022-09-13T08:37:35;15.80;99.90
21627;DHT22;10975;47.872;12.972;2022-09-13T08:40:02;15.80;99.90
21627;DHT22;10975;47.872;12.972;2022-09-13T08:42:37;15.90;99.90
21627;DHT22;10975;47.872;12.972;2022-09-13T08:45:06;16.10;99.90
21627;DHT22;10975;47.872;12.972;2022-09-13T08:52:39;16.30;99.90
21627;DHT22;10975;47.872;12.972;2022-09-13T08:57:50;16.40;99.90
21627;DHT22;10975;47.872;12.972;2022-09-13T09:00:23;16.50;99.90
21627;DHT22;10975;47.872;12.972;2022-09-13T09:05:30;16.80;99.90
21627;DHT22;10975;47.872;12.972;2022-09-13T09:08:01;16.90;99.90
21627;DHT22;10975;47.872;12.972;2022-09-13T09:10:32;16.90;99.90
21627;DHT22;10975;47.872;12.972;2022-09-13T09:13:12;17.00;99.90
21627;DHT22;10975;47.872;12.972;2022-09-13T09:15:49;17.10;99.90
21627;DHT22;10975;47.872;12.972;2022-09-13T09:18:18;17.10;99.90
21627;DHT22;10975;47.872;12.972;2022-09-13T09:20:46;17.20;99.90
21627;DHT22;10975;47.872;12.972;2022-09-13T09:23:17;17.30;99.90
21627;DHT22;10975;47.872;12.972;2022-09-13T09:25:49;17.40;99.90
21627;DHT22;10975;47.872;12.972;2022-09-13T09:28:16;17.50;99.90
21627;DHT22;10975;47.872;12.972;2022-09-13T09:30:54;17.50;99.90
21627;DHT22;10975;47.872;12.972;2022-09-13T09:33:32;17.60;99.90
21627;DHT22;10975;47.872;12.972;2022-09-13T09:38:47;17.70;99.90
21627;DHT22;10975;47.872;12.972;2022-09-13T09:41:19;17.80;99.90
21627;DHT22;10975;47.872;12.972;2022-09-13T09:43:54;17.90;99.90
21627;DHT22;10975;47.872;12.972;2022-09-13T09:46:25;18.00;99.90
21627;DHT22;10975;47.872;12.972;2022-09-13T09:48:55;18.00;99.90
21627;DHT22;10975;47.872;12.972;2022-09-13T09:51:22;18.10;99.90
21627;DHT22;10975;47.872;12.972;2022-09-13T09:53:52;18.20;99.90
21627;DHT22;10975;47.872;12.972;2022-09-13T09:56:42;18.30;99.90
21627;DHT22;10975;47.872;12.972;2022-09-13T09:59:27;18.30;99.90
21627;DHT22;10975;47.872;12.972;2022-09-13T10:01:54;18.50;99.90
21627;DHT22;10975;47.872;12.972;2022-09-13T10:04:23;18.50;99.90
21627;DHT22;10975;47.872;12.972;2022-09-13T10:07:06;18.60;99.90
21627;DHT22;10975;47.872;12.972;2022-09-13T10:09:37;18.70;99.90
21627;DHT22;10975;47.872;12.972;2022-09-13T10:12:05;18.80;99.90
21627;DHT22;10975;47.872;12.972;2022-09-13T10:14:36;18.80;99.90
21627;DHT22;10975;47.872;12.972;2022-09-13T10:19:40;18.90;99.90
21627;DHT22;10975;47.872;12.972;2022-09-13T10:22:11;18.90;99.90
21627;DHT22;10975;47.872;12.972;2022-09-13T10:24:38;19.00;99.90
21627;DHT22;10975;47.872;12.972;2022-09-13T10:27:15;19.10;99.90
21627;DHT22;10975;47.872;12.972;2022-09-13T10:29:46;19.20;99.90
21627;DHT22;10975;47.872;12.972;2022-09-13T10:32:13;19.30;99.90
21627;DHT22;10975;47.872;12.972;2022-09-13T10:34:42;19.30;99.90
21627;DHT22;10975;47.872;12.972;2022-09-13T10:39:38;19.50;99.90
21627;DHT22;10975;47.872;12.972;2022-09-13T10:42:15;19.60;99.90
21627;DHT22;10975;47.872;12.972;2022-09-13T10:44:56;19.70;99.90
21627;DHT22;10975;47.872;12.972;2022-09-13T10:50:09;19.90;99.90
21627;DHT22;10975;47.872;12.972;2022-09-13T10:52:43;19.90;99.90
21627;DHT22;10975;47.872;12.972;2022-09-13T11:00:17;20.20;99.90
21627;DHT22;10975;47.872;12.972;2022-09-13T11:08:05;20.30;99.90
21627;DHT22;10975;47.872;12.972;2022-09-13T11:10:53;20.40;99.90
21627;DHT22;10975;47.872;12.972;2022-09-13T11:18:36;21.00;99.90
21627;DHT22;10975;47.872;12.972;2022-09-13T11:23:43;21.20;99.90
21627;DHT22;10975;47.872;12.972;2022-09-13T11:26:26;21.20;99.90
21627;DHT22;10975;47.872;12.972;2022-09-13T11:31:41;21.40;99.90
21627;DHT22;10975;47.872;12.972;2022-09-13T11:39:30;21.50;99.90
21627;DHT22;10975;47.872;12.972;2022-09-13T11:42:19;21.60;99.90
21627;DHT22;10975;47.872;12.972;2022-09-13T11:48:08;21.80;99.90
21627;DHT22;10975;47.872;12.972;2022-09-13T11:53:15;21.80;99.90
21627;DHT22;10975;47.872;12.972;2022-09-13T11:55:56;21.90;99.90
21627;DHT22;10975;47.872;12.972;2022-09-13T11:58:26;21.90;99.90
21627;DHT22;10975;47.872;12.972;2022-09-13T12:00:56;21.80;99.90
21627;DHT22;10975;47.872;12.972;2022-09-13T12:03:26;21.90;99.90
21627;DHT22;10975;47.872;12.972;2022-09-13T12:06:00;21.90;99.90
21627;DHT22;10975;47.872;12.972;2022-09-13T12:08:29;22.00;99.90
21627;DHT22;10975;47.872;12.972;2022-09-13T12:16:09;22.00;99.90
21627;DHT22;10975;47.872;12.972;2022-09-13T12:18:42;22.10;99.90
21627;DHT22;10975;47.872;12.972;2022-09-13T12:21:16;22.20;99.90
21627;DHT22;10975;47.872;12.972;2022-09-13T12:24:05;22.40;99.90
21627;DHT22;10975;47.872;12.972;2022-09-13T12:29:10;22.80;99.90
21627;DHT22;10975;47.872;12.972;2022-09-13T12:31:39;22.80;99.90
21627;DHT22;10975;47.872;12.972;2022-09-13T12:34:06;22.90;99.90
21627;DHT22;10975;47.872;12.972;2022-09-13T12:36:38;22.90;99.90
21627;DHT22;10975;47.872;12.972;2022-09-13T12:49:42;23.10;99.90
21627;DHT22;10975;47.872;12.972;2022-09-13T13:00:08;23.30;99.90
21627;DHT22;10975;47.872;12.972;2022-09-13T13:02:37;23.30;99.90
21627;DHT22;10975;47.872;12.972;2022-09-13T13:05:17;23.40;99.90
21627;DHT22;10975;47.872;12.972;2022-09-13T13:07:49;23.60;99.90
21627;DHT22;10975;47.872;12.972;2022-09-13T13:10:24;23.80;99.90
21627;DHT22;10975;47.872;12.972;2022-09-13T13:12:52;24.10;99.90
21627;DHT22;10975;47.872;12.972;2022-09-13T13:17:52;24.40;99.90
21627;DHT22;10975;47.872;12.972;2022-09-13T13:33:53;24.80;99.90
21627;DHT22;10975;47.872;12.972;2022-09-13T13:36:22;24.90;99.90
21627;DHT22;10975;47.872;12.972;2022-09-13T13:38:49;25.10;99.90
21627;DHT22;10975;47.872;12.972;2022-09-13T13:43:59;25.30;99.90
21627;DHT22;10975;47.872;12.972;2022-09-13T13:46:29;25.40;99.90
21627;DHT22;10975;47.872;12.972;2022-09-13T13:51:43;25.40;99.90
21627;DHT22;10975;47.872;12.972;2022-09-13T13:54:29;25.40;99.90
21627;DHT22;10975;47.872;12.972;2022-09-13T13:56:57;25.40;99.90
21627;DHT22;10975;47.872;12.972;2022-09-13T13:59:25;25.10;99.90
21627;DHT22;10975;47.872;12.972;2022-09-13T14:01:54;25.00;99.90
21627;DHT22;10975;47.872;12.972;2022-09-13T14:04:29;25.00;99.90
21627;DHT22;10975;47.872;12.972;2022-09-13T14:07:09;25.00;99.90
21627;DHT22;10975;47.872;12.972;2022-09-13T14:12:25;24.90;99.90
21627;DHT22;10975;47.872;12.972;2022-09-13T14:15:56;25.20;99.90
21627;DHT22;10975;47.872;12.972;2022-09-13T14:20:35;24.90;99.90
21627;DHT22;10975;47.872;12.972;2022-09-13T14:23:17;24.90;99.90
21627;DHT22;10975;47.872;12.972;2022-09-13T14:25:44;24.80;99.90
21627;DHT22;10975;47.872;12.972;2022-09-13T14:28:13;24.70;99.90
21627;DHT22;10975;47.872;12.972;2022-09-13T14:30:41;24.70;99.90
21627;DHT22;10975;47.872;12.972;2022-09-13T14:33:17;24.70;99.90
21627;DHT22;10975;47.872;12.972;2022-09-13T14:35:47;24.60;99.90
21627;DHT22;10975;47.872;12.972;2022-09-13T14:38:26;24.60;99.90
21627;DHT22;10975;47.872;12.972;2022-09-13T14:41:00;24.70;99.90
21627;DHT22;10975;47.872;12.972;2022-09-13T14:43:28;24.70;99.90
21627;DHT22;10975;47.872;12.972;2022-09-13T14:45:58;24.70;99.90
21627;DHT22;10975;47.872;12.972;2022-09-13T14:48:27;24.80;99.90
21627;DHT22;10975;47.872;12.972;2022-09-13T14:50:58;24.90;99.90
21627;DHT22;10975;47.872;12.972;2022-09-13T14:53:26;25.00;99.90
21627;DHT22;10975;47.872;12.972;2022-09-13T14:55:55;25.00;99.90
21627;DHT22;10975;47.872;12.972;2022-09-13T14:58:30;25.00;99.90
21627;DHT22;10975;47.872;12.972;2022-09-13T15:00:59;25.10;99.90
21627;DHT22;10975;47.872;12.972;2022-09-13T15:03:27;25.00;99.90
21627;DHT22;10975;47.872;12.972;2022-09-13T15:05:55;25.00;99.90
21627;DHT22;10975;47.872;12.972;2022-09-13T15:08:26;25.00;99.90
21627;DHT22;10975;47.872;12.972;2022-09-13T15:10:55;25.00;99.90
21627;DHT22;10975;47.872;12.972;2022-09-13T15:13:22;24.90;99.90
21627;DHT22;10975;47.872;12.972;2022-09-13T15:15:49;24.80;99.90
21627;DHT22;10975;47.872;12.972;2022-09-13T15:23:13;24.70;99.90
21627;DHT22;10975;47.872;12.972;2022-09-13T15:25:40;24.70;99.90
21627;DHT22;10975;47.872;12.972;2022-09-13T15:28:30;24.70;99.90
21627;DHT22;10975;47.872;12.972;2022-09-13T15:30:58;24.60;99.90
21627;DHT22;10975;47.872;12.972;2022-09-13T15:33:29;24.50;99.90
21627;DHT22;10975;47.872;12.972;2022-09-13T15:38:54;24.20;99.90
21627;DHT22;10975;47.872;12.972;2022-09-13T15:41:21;24.10;99.90
21627;DHT22;10975;47.872;12.972;2022-09-13T15:43:50;24.00;99.90
21627;DHT22;10975;47.872;12.972;2022-09-13T15:46:16;23.90;99.90
21627;DHT22;10975;47.872;12.972;2022-09-13T15:48:49;23.90;99.90
21627;DHT22;10975;47.872;12.972;2022-09-13T15:51:16;23.80;99.90
21627;DHT22;10975;47.872;12.972;2022-09-13T15:53:43;23.80;99.90
21627;DHT22;10975;47.872;12.972;2022-09-13T15:56:17;23.80;99.90
21627;DHT22;10975;47.872;12.972;2022-09-13T15:58:45;23.80;99.90
21627;DHT22;10975;47.872;12.972;2022-09-13T16:01:12;23.70;99.90
21627;DHT22;10975;47.872;12.972;2022-09-13T16:03:39;23.60;99.90
21627;DHT22;10975;47.872;12.972;2022-09-13T16:06:06;23.50;99.90
21627;DHT22;10975;47.872;12.972;2022-09-13T16:08:35;23.50;99.90
21627;DHT22;10975;47.872;12.972;2022-09-13T16:11:02;23.40;99.90
21627;DHT22;10975;47.872;12.972;2022-09-13T16:13:28;23.30;99.90
21627;DHT22;10975;47.872;12.972;2022-09-13T16:15:55;23.30;99.90
21627;DHT22;10975;47.872;12.972;2022-09-13T16:18:23;23.20;99.90
21627;DHT22;10975;47.872;12.972;2022-09-13T16:20:50;23.10;99.90
21627;DHT22;10975;47.872;12.972;2022-09-13T16:23:16;23.10;99.90
21627;DHT22;10975;47.872;12.972;2022-09-13T16:25:43;23.00;99.90
21627;DHT22;10975;47.872;12.972;2022-09-13T16:28:16;23.00;99.90
21627;DHT22;10975;47.872;12.972;2022-09-13T16:30:46;23.00;99.90
21627;DHT22;10975;47.872;12.972;2022-09-13T16:33:13;22.90;99.90
21627;DHT22;10975;47.872;12.972;2022-09-13T16:35:40;22.90;99.90
21627;DHT22;10975;47.872;12.972;2022-09-13T16:38:08;22.80;99.90
21627;DHT22;10975;47.872;12.972;2022-09-13T16:40:37;22.70;99.90
21627;DHT22;10975;47.872;12.972;2022-09-13T16:43:03;22.60;99.90
21627;DHT22;10975;47.872;12.972;2022-09-13T16:45:30;22.50;99.90
21627;DHT22;10975;47.872;12.972;2022-09-13T16:47:57;22.40;99.90
21627;DHT22;10975;47.872;12.972;2022-09-13T16:50:23;22.30;99.90
21627;DHT22;10975;47.872;12.972;2022-09-13T16:52:50;22.20;99.90
21627;DHT22;10975;47.872;12.972;2022-09-13T16:55:17;22.10;99.90
21627;DHT22;10975;47.872;12.972;2022-09-13T16:57:44;22.10;99.90
21627;DHT22;10975;47.872;12.972;2022-09-13T17:00:13;22.00;99.90
21627;DHT22;10975;47.872;12.972;2022-09-13T17:02:40;21.90;99.90
21627;DHT22;10975;47.872;12.972;2022-09-13T17:05:07;21.80;99.90
21627;DHT22;10975;47.872;12.972;2022-09-13T17:07:36;21.80;99.90
21627;DHT22;10975;47.872;12.972;2022-09-13T17:10:04;21.60;99.90
21627;DHT22;10975;47.872;12.972;2022-09-13T17:12:31;21.50;99.90
21627;DHT22;10975;47.872;12.972;2022-09-13T17:14:57;21.50;99.90
21627;DHT22;10975;47.872;12.972;2022-09-13T17:17:25;21.40;99.90
21627;DHT22;10975;47.872;12.972;2022-09-13T17:19:51;21.30;99.90
21627;DHT22;10975;47.872;12.972;2022-09-13T17:22:18;21.20;99.90
21627;DHT22;10975;47.872;12.972;2022-09-13T17:24:45;21.10;99.90
21627;DHT22;10975;47.872;12.972;2022-09-13T17:27:12;21.00;99.90
21627;DHT22;10975;47.872;12.972;2022-09-13T17:29:38;21.00;99.90
21627;DHT22;10975;47.872;12.972;2022-09-13T17:32:05;21.00;99.90
21627;DHT22;10975;47.872;12.972;2022-09-13T17:34:32;20.90;99.90
21627;DHT22;10975;47.872;12.972;2022-09-13T17:37:00;20.90;99.90
21627;DHT22;10975;47.872;12.972;2022-09-13T17:39:29;20.90;99.90
21627;DHT22;10975;47.872;12.972;2022-09-13T17:41:56;20.80;99.90
21627;DHT22;10975;47.872;12.972;2022-09-13T17:44:23;20.80;99.90
21627;DHT22;10975;47.872;12.972;2022-09-13T17:46:50;20.70;99.90
21627;DHT22;10975;47.872;12.972;2022-09-13T17:49:17;20.70;99.90
21627;DHT22;10975;47.872;12.972;2022-09-13T17:51:44;20.60;99.90
21627;DHT22;10975;47.872;12.972;2022-09-13T17:54:10;20.50;99.90
21627;DHT22;10975;47.872;12.972;2022-09-13T17:56:38;20.40;99.90
21627;DHT22;10975;47.872;12.972;2022-09-13T17:59:09;20.40;99.90
21627;DHT22;10975;47.872;12.972;2022-09-13T18:01:37;20.40;99.90
21627;DHT22;10975;47.872;12.972;2022-09-13T18:04:05;20.30;99.90
21627;DHT22;10975;47.872;12.972;2022-09-13T18:06:33;20.30;99.90
21627;DHT22;10975;47.872;12.972;2022-09-13T18:09:00;20.30;99.90
21627;DHT22;10975;47.872;12.972;2022-09-13T18:11:27;20.30;99.90
21627;DHT22;10975;47.872;12.972;2022-09-13T18:13:54;20.20;99.90
21627;DHT22;10975;47.872;12.972;2022-09-13T18:16:21;20.20;99.90
21627;DHT22;10975;47.872;12.972;2022-09-13T18:18:49;20.20;99.90
21627;DHT22;10975;47.872;12.972;2022-09-13T18:21:17;20.20;99.90
21627;DHT22;10975;47.872;12.972;2022-09-13T18:23:48;20.10;99.90